Time;durP1;ratioP1;P1;durP2;ratioP2;P2;SDS_P1;SDS_P2;PMS_P1;PMS_P2;Temp;Humidity;BMP_temperature;BMP_pressure;BME280_temperature;BME280_humidity;BME280_pressure;Samples;Min_cycle;Max_cycle;Signal;HPM_P1;HPM_P2
2021/10/05 00:01:47;;;;;;;16.37;14.17;;;14.80;91.10;;;;;;5113301;28;20937;-64
2021/10/05 00:04:14;;;;;;;18.63;14.43;;;14.80;91.10;;;;;;5110995;28;20485;-69
2021/10/05 00:06:41;;;;;;;16.63;13.77;;;14.80;91.00;;;;;;5092581;28;20496;-64
2021/10/05 00:09:13;;;;;;;20.10;15.20;;;14.80;91.10;;;;;;5092581;28;20482;-66
2021/10/05 00:11:44;;;;;;;16.63;13.50;;;14.80;91.20;;;;;;5092523;28;20534;-64
2021/10/05 00:14:16;;;;;;;17.37;13.40;;;14.80;91.30;;;;;;5092546;28;20427;-65
2021/10/05 00:16:43;;;;;;;15.63;12.33;;;14.70;91.40;;;;;;5092897;28;20529;-64
2021/10/05 00:19:17;;;;;;;14.00;12.53;;;14.80;91.50;;;;;;5092787;28;20478;-64
2021/10/05 00:21:45;;;;;;;14.17;12.63;;;14.80;91.50;;;;;;5092758;28;20434;-64
2021/10/05 00:24:13;;;;;;;16.03;14.30;;;14.80;91.60;;;;;;5092400;28;20510;-64
2021/10/05 00:26:41;;;;;;;16.87;14.17;;;14.70;91.60;;;;;;5092679;28;20847;-64
2021/10/05 00:29:11;;;;;;;17.47;14.23;;;14.80;91.60;;;;;;5092339;28;20471;-65
2021/10/05 00:31:38;;;;;;;16.83;13.67;;;14.70;91.50;;;;;;5092668;28;20497;-64
2021/10/05 00:34:10;;;;;;;17.77;13.53;;;14.70;91.70;;;;;;5092085;28;20523;-65
2021/10/05 00:36:37;;;;;;;19.67;15.10;;;14.70;91.80;;;;;;5092240;28;20858;-64
2021/10/05 00:39:05;;;;;;;17.63;15.07;;;14.70;92.20;;;;;;5092498;28;20430;-64
2021/10/05 00:41:39;;;;;;;18.23;14.57;;;14.70;92.00;;;;;;5092556;28;20521;-64
2021/10/05 00:44:11;;;;;;;17.63;13.40;;;14.70;91.90;;;;;;5092338;28;20561;-64
2021/10/05 00:46:43;;;;;;;17.00;13.70;;;14.60;92.00;;;;;;5092160;28;20938;-64
2021/10/05 00:49:10;;;;;;;19.37;13.27;;;14.60;92.10;;;;;;5092352;28;20463;-64
2021/10/05 00:51:37;;;;;;;17.40;14.03;;;14.60;92.10;;;;;;5092176;28;20435;-64
2021/10/05 00:54:04;;;;;;;17.33;14.57;;;14.60;92.20;;;;;;5092453;28;20513;-64
2021/10/05 00:57:01;;;;;;;20.27;15.17;;;14.60;92.30;;;;;;5092200;28;20471;-64
2021/10/05 00:59:30;;;;;;;17.43;14.90;;;14.60;92.40;;;;;;5091991;28;20514;-64
2021/10/05 01:01:58;;;;;;;22.30;16.60;;;14.60;92.50;;;;;;5092332;28;20442;-64
2021/10/05 01:04:26;;;;;;;19.20;15.87;;;14.60;92.60;;;;;;5092371;28;20518;-64
2021/10/05 01:06:57;;;;;;;21.00;16.00;;;14.60;92.70;;;;;;5096138;28;20534;-64
2021/10/05 01:09:25;;;;;;;22.27;17.40;;;14.60;92.70;;;;;;5095671;28;20522;-65
2021/10/05 01:11:56;;;;;;;18.27;14.73;;;14.50;92.60;;;;;;5095735;28;20522;-64
2021/10/05 01:14:25;;;;;;;18.20;16.00;;;14.50;92.80;;;;;;5095907;28;20475;-64
2021/10/05 01:16:56;;;;;;;21.40;18.27;;;14.60;93.00;;;;;;5095946;28;20438;-64
2021/10/05 01:19:28;;;;;;;20.57;17.10;;;14.60;92.80;;;;;;5100179;28;20462;-64
2021/10/05 01:21:56;;;;;;;20.43;16.10;;;14.50;92.80;;;;;;5104143;28;20487;-64
2021/10/05 01:24:25;;;;;;;21.53;16.10;;;14.50;92.80;;;;;;5114682;28;20535;-64
2021/10/05 01:26:54;;;;;;;19.17;17.00;;;14.50;93.10;;;;;;5115923;28;20504;-66
2021/10/05 01:29:23;;;;;;;21.03;16.97;;;14.50;93.20;;;;;;5115821;28;20517;-64
2021/10/05 01:31:54;;;;;;;17.83;15.83;;;14.50;93.10;;;;;;5115856;28;20474;-64
2021/10/05 01:34:27;;;;;;;20.20;14.50;;;14.50;93.10;;;;;;5116305;28;20516;-64
2021/10/05 01:36:58;;;;;;;21.47;15.63;;;14.50;93.10;;;;;;5115823;28;20473;-65
2021/10/05 01:39:26;;;;;;;17.70;15.37;;;14.50;93.10;;;;;;5115958;28;20436;-64
2021/10/05 01:41:55;;;;;;;16.57;14.77;;;14.50;93.20;;;;;;5115918;28;20477;-67
2021/10/05 01:44:27;;;;;;;17.73;15.30;;;14.50;93.20;;;;;;5115633;28;20564;-63
2021/10/05 01:46:54;;;;;;;17.10;14.47;;;14.40;93.10;;;;;;5115548;28;20521;-66
2021/10/05 01:49:22;;;;;;;20.50;15.43;;;14.40;93.20;;;;;;5115486;28;20482;-65
2021/10/05 01:51:50;;;;;;;17.87;14.50;;;14.40;93.20;;;;;;5115916;28;20469;-65
2021/10/05 01:54:19;;;;;;;16.00;13.33;;;14.40;93.10;;;;;;5109969;28;20884;-65
2021/10/05 01:56:46;;;;;;;17.30;15.30;;;14.40;93.20;;;;;;5095191;28;20514;-64
2021/10/05 01:59:13;;;;;;;18.77;14.50;;;14.30;93.10;;;;;;5094465;28;20481;-64
2021/10/05 02:01:40;;;;;;;17.00;14.20;;;14.30;93.30;;;;;;5094975;28;20526;-64
2021/10/05 02:04:08;;;;;;;15.07;13.43;;;14.30;93.30;;;;;;5097500;28;20486;-64
2021/10/05 02:06:40;;;;;;;15.93;13.83;;;14.30;93.50;;;;;;5115518;28;20480;-64
2021/10/05 02:09:09;;;;;;;15.50;13.40;;;14.30;93.50;;;;;;5115325;28;20469;-65
2021/10/05 02:11:38;;;;;;;16.23;12.87;;;14.30;93.30;;;;;;5115760;28;20476;-65
2021/10/05 02:14:05;;;;;;;14.30;12.70;;;14.40;93.30;;;;;;5113050;28;20513;-70
2021/10/05 02:16:33;;;;;;;15.97;13.57;;;14.40;93.10;;;;;;5113358;28;20434;-64
2021/10/05 02:19:07;;;;;;;17.63;14.77;;;14.40;93.30;;;;;;5114628;28;20957;-65
2021/10/05 02:21:36;;;;;;;15.23;13.63;;;14.40;93.30;;;;;;5115168;28;20824;-64
2021/10/05 02:26:51;;;;;;;14.37;12.10;;;14.30;93.40;;;;;;5094909;28;20526;-65
2021/10/05 02:29:19;;;;;;;16.03;13.53;;;14.30;93.00;;;;;;5094022;28;20526;-64
2021/10/05 02:31:46;;;;;;;14.77;12.67;;;14.30;93.10;;;;;;5094421;28;20471;-64
2021/10/05 02:34:13;;;;;;;15.27;12.70;;;14.30;93.30;;;;;;5094327;28;20478;-64
2021/10/05 02:36:41;;;;;;;13.63;12.20;;;14.30;93.40;;;;;;5094250;28;20443;-64
2021/10/05 02:39:08;;;;;;;14.97;12.17;;;14.30;93.40;;;;;;5093979;28;20481;-65
2021/10/05 02:41:35;;;;;;;15.50;12.20;;;14.30;93.50;;;;;;5094429;28;20514;-63
2021/10/05 02:44:05;;;;;;;15.23;12.50;;;14.30;93.30;;;;;;5094163;28;20505;-64
2021/10/05 02:46:35;;;;;;;16.27;13.10;;;14.30;93.20;;;;;;5094315;28;20795;-64
2021/10/05 02:49:02;;;;;;;12.80;11.47;;;14.30;93.10;;;;;;5093637;28;20471;-63
2021/10/05 02:51:30;;;;;;;18.70;13.70;;;14.30;93.20;;;;;;5093863;28;20474;-64
2021/10/05 02:54:02;;;;;;;17.97;13.57;;;14.30;93.30;;;;;;5094121;28;20829;-65
2021/10/05 02:56:29;;;;;;;13.57;10.47;;;14.30;93.30;;;;;;5093953;28;20838;-64
2021/10/05 02:58:56;;;;;;;17.20;14.10;;;14.30;93.10;;;;;;5093670;28;20518;-64
2021/10/05 03:01:25;;;;;;;16.20;12.23;;;14.20;93.40;;;;;;5093626;28;20473;-65
2021/10/05 03:03:57;;;;;;;17.37;12.90;;;14.20;93.50;;;;;;5093670;28;20525;-63
2021/10/05 03:06:29;;;;;;;14.80;11.73;;;14.20;93.70;;;;;;5093849;28;20840;-63
2021/10/05 03:08:58;;;;;;;13.37;10.50;;;14.20;93.70;;;;;;5093306;28;20468;-64
2021/10/05 03:11:26;;;;;;;18.10;11.83;;;14.20;93.80;;;;;;5093760;28;20467;-64
2021/10/05 03:13:54;;;;;;;16.73;12.20;;;14.20;93.80;;;;;;5093474;28;20527;-64
2021/10/05 03:16:27;;;;;;;15.20;12.37;;;14.20;93.80;;;;;;5093557;28;20522;-65
2021/10/05 03:18:54;;;;;;;18.63;14.07;;;14.20;93.70;;;;;;5093875;28;20517;-65
2021/10/05 03:21:21;;;;;;;14.63;11.77;;;14.20;93.60;;;;;;5093267;28;20486;-64
2021/10/05 03:23:48;;;;;;;16.60;13.10;;;14.20;93.50;;;;;;5093257;28;20530;-64
2021/10/05 03:26:17;;;;;;;16.60;13.30;;;14.20;93.60;;;;;;5093528;28;21016;-64
2021/10/05 03:28:45;;;;;;;18.03;12.87;;;14.20;93.60;;;;;;5092533;28;20447;-64
2021/10/05 03:31:13;;;;;;;17.87;12.13;;;14.20;93.60;;;;;;5093026;28;20475;-64
2021/10/05 03:33:43;;;;;;;18.63;13.57;;;14.30;93.40;;;;;;5104267;28;20442;-64
2021/10/05 03:36:11;;;;;;;16.83;12.97;;;14.30;93.60;;;;;;5113439;28;20470;-64
2021/10/05 03:38:38;;;;;;;17.80;13.60;;;14.30;93.70;;;;;;5113461;28;20841;-64
2021/10/05 03:41:10;;;;;;;18.93;12.20;;;14.30;93.60;;;;;;5113128;28;20434;-64
2021/10/05 03:43:39;;;;;;;17.80;13.57;;;14.20;93.70;;;;;;5113548;28;20468;-64
2021/10/05 03:46:11;;;;;;;16.57;12.13;;;14.20;93.70;;;;;;5113401;28;20482;-64
2021/10/05 03:48:38;;;;;;;16.80;12.13;;;14.20;93.70;;;;;;5101693;28;20534;-64
2021/10/05 03:51:13;;;;;;;15.97;12.53;;;14.30;93.70;;;;;;5093105;28;20470;-64
2021/10/05 03:53:40;;;;;;;19.83;13.27;;;14.20;93.70;;;;;;5092597;28;20482;-64
2021/10/05 03:56:11;;;;;;;15.83;12.27;;;14.20;93.60;;;;;;5093030;28;20526;-64
2021/10/05 03:58:38;;;;;;;14.90;10.67;;;14.30;93.60;;;;;;5092657;28;20879;-63
2021/10/05 04:01:09;;;;;;;14.43;11.37;;;14.20;93.50;;;;;;5092923;28;20440;-64
2021/10/05 04:03:38;;;;;;;13.97;11.10;;;14.20;93.50;;;;;;5093320;28;20435;-64
2021/10/05 04:06:05;;;;;;;13.27;10.93;;;14.20;93.60;;;;;;5092596;28;20514;-64
2021/10/05 04:08:43;;;;;;;14.53;10.93;;;14.30;93.60;;;;;;5092861;28;20439;-63
2021/10/05 04:11:14;;;;;;;17.23;11.13;;;14.20;93.60;;;;;;5092985;28;20526;-64
2021/10/05 04:13:46;;;;;;;15.77;10.77;;;14.30;93.60;;;;;;5092654;28;20478;-64
2021/10/05 04:16:17;;;;;;;15.07;8.90;;;14.30;93.70;;;;;;5093101;28;20875;-63
2021/10/05 04:18:44;;;;;;;13.40;10.40;;;14.20;93.60;;;;;;5093223;28;20494;-64
2021/10/05 04:21:11;;;;;;;12.67;10.27;;;14.20;93.70;;;;;;5093029;28;20526;-64
2021/10/05 04:23:43;;;;;;;12.23;9.47;;;14.30;93.70;;;;;;5092756;28;20519;-64
2021/10/05 04:26:12;;;;;;;14.53;11.67;;;14.30;93.70;;;;;;5093054;28;20483;-64
2021/10/05 04:28:41;;;;;;;12.50;9.50;;;14.30;93.70;;;;;;5092905;28;20825;-64
2021/10/05 04:31:09;;;;;;;13.30;10.30;;;14.20;93.70;;;;;;5092437;28;20470;-64
2021/10/05 04:33:41;;;;;;;14.60;9.40;;;14.30;93.80;;;;;;5092555;28;20442;-64
2021/10/05 04:36:13;;;;;;;12.90;10.37;;;14.30;93.80;;;;;;5092883;28;20984;-64
2021/10/05 04:38:48;;;;;;;15.90;11.17;;;14.30;93.90;;;;;;5092976;28;20471;-64
2021/10/05 04:41:15;;;;;;;12.87;10.00;;;14.30;93.90;;;;;;5096028;28;20517;-63
2021/10/05 04:43:42;;;;;;;11.60;8.03;;;14.30;93.80;;;;;;5096946;28;20497;-63
2021/10/05 04:46:09;;;;;;;20.67;10.63;;;14.30;93.80;;;;;;5096902;28;20573;-63
2021/10/05 04:48:36;;;;;;;15.10;10.97;;;14.30;93.70;;;;;;5096473;28;20549;-64
2021/10/05 04:51:08;;;;;;;14.87;10.00;;;14.20;93.60;;;;;;5096691;28;20512;-63
2021/10/05 04:53:35;;;;;;;13.80;9.80;;;14.20;93.60;;;;;;5096649;28;20514;-64
2021/10/05 04:56:04;;;;;;;13.97;9.97;;;14.30;93.50;;;;;;5096687;28;20466;-64
2021/10/05 04:58:31;;;;;;;15.10;10.77;;;14.30;93.50;;;;;;5096389;28;20822;-64
2021/10/05 05:00:58;;;;;;;16.37;11.03;;;14.30;93.50;;;;;;5096668;28;20467;-64
2021/10/05 05:03:36;;;;;;;15.67;10.10;;;14.20;93.40;;;;;;5096569;28;20434;-65
2021/10/05 05:06:14;;;;;;;14.30;10.70;;;14.20;93.40;;;;;;5094197;28;20891;-65
2021/10/05 05:08:43;;;;;;;14.40;10.17;;;14.20;93.40;;;;;;5101981;28;20931;-64
2021/10/05 05:11:15;;;;;;;15.97;10.70;;;14.20;93.40;;;;;;5095252;28;20434;-65
2021/10/05 05:13:45;;;;;;;15.80;12.07;;;14.20;93.50;;;;;;5095321;28;20434;-66
2021/10/05 05:16:12;;;;;;;15.77;9.20;;;14.20;93.40;;;;;;5095363;28;20466;-64
2021/10/05 05:18:40;;;;;;;16.37;10.67;;;14.20;93.50;;;;;;5094936;28;20538;-65
2021/10/05 05:21:12;;;;;;;13.43;8.63;;;14.20;93.50;;;;;;5095137;28;20434;-68
2021/10/05 05:23:41;;;;;;;13.93;10.30;;;14.20;93.50;;;;;;5095428;28;20451;-64
2021/10/05 05:26:24;;;;;;;14.10;10.27;;;14.30;93.50;;;;;;5095097;28;20517;-65
2021/10/05 05:28:51;;;;;;;11.87;8.67;;;14.30;93.40;;;;;;5094781;28;20439;-64
2021/10/05 05:31:19;;;;;;;14.60;10.10;;;14.20;93.30;;;;;;5094787;28;20522;-65
2021/10/05 05:33:50;;;;;;;16.77;10.13;;;14.20;93.40;;;;;;5113002;28;20433;-64
2021/10/05 05:36:18;;;;;;;20.43;10.07;;;14.20;93.50;;;;;;5113496;28;20531;-64
2021/10/05 05:38:49;;;;;;;13.20;10.33;;;14.20;93.30;;;;;;5102905;28;20439;-64
2021/10/05 05:41:20;;;;;;;15.13;10.00;;;14.20;93.50;;;;;;5094247;28;20534;-64
2021/10/05 05:43:48;;;;;;;16.07;9.67;;;14.20;93.50;;;;;;5094639;28;20524;-64
2021/10/05 05:46:16;;;;;;;14.30;7.87;;;14.20;93.50;;;;;;5094781;28;20582;-65
2021/10/05 05:48:45;;;;;;;13.77;7.93;;;14.30;93.60;;;;;;5111875;28;20468;-64
2021/10/05 05:51:14;;;;;;;12.20;7.60;;;14.30;93.70;;;;;;5111028;28;20444;-65
2021/10/05 05:53:46;;;;;;;11.33;7.63;;;14.30;93.70;;;;;;5112868;28;20514;-64
2021/10/05 05:56:23;;;;;;;12.83;7.57;;;14.30;93.70;;;;;;5094663;28;20435;-64
2021/10/05 05:58:55;;;;;;;11.80;8.10;;;14.30;93.60;;;;;;5094147;28;20814;-64
2021/10/05 06:01:22;;;;;;;12.33;7.60;;;14.40;93.50;;;;;;5094505;28;20438;-64
2021/10/05 06:03:50;;;;;;;13.63;9.13;;;14.40;93.50;;;;;;5094572;28;20461;-65
2021/10/05 06:06:22;;;;;;;11.37;7.57;;;14.40;93.40;;;;;;5097814;28;20481;-65
2021/10/05 06:08:50;;;;;;;12.60;7.17;;;14.40;93.20;;;;;;5109848;28;20466;-66
2021/10/05 06:11:22;;;;;;;12.43;7.40;;;14.40;93.10;;;;;;5094103;28;20438;-65
2021/10/05 06:13:51;;;;;;;11.50;8.43;;;14.40;93.20;;;;;;5093423;28;20954;-65
2021/10/05 06:16:18;;;;;;;9.90;7.10;;;14.40;93.10;;;;;;5094158;28;20435;-66
2021/10/05 06:18:46;;;;;;;13.10;8.93;;;14.40;93.00;;;;;;5094010;28;20485;-65
2021/10/05 06:21:14;;;;;;;16.43;10.00;;;14.40;93.00;;;;;;5094192;28;20454;-65
2021/10/05 06:23:41;;;;;;;11.63;8.27;;;14.50;93.00;;;;;;5093907;28;20847;-65
2021/10/05 06:26:15;;;;;;;15.70;9.60;;;14.50;93.00;;;;;;5095210;28;20470;-65
2021/10/05 06:28:44;;;;;;;12.63;9.33;;;14.50;93.10;;;;;;5094055;28;20462;-65
2021/10/05 06:31:13;;;;;;;15.00;10.17;;;14.50;93.20;;;;;;5101775;28;20932;-65
2021/10/05 06:33:40;;;;;;;23.40;10.97;;;14.50;93.00;;;;;;5094292;28;20541;-65
2021/10/05 06:36:07;;;;;;;21.40;10.80;;;14.50;93.10;;;;;;5112202;28;20442;-65
2021/10/05 06:38:35;;;;;;;12.40;8.17;;;14.50;93.10;;;;;;5101251;28;20526;-65
2021/10/05 06:41:02;;;;;;;12.17;8.40;;;14.50;93.10;;;;;;5100394;28;20439;-65
2021/10/05 06:43:30;;;;;;;15.07;9.13;;;14.50;93.10;;;;;;5092893;28;20521;-65
2021/10/05 06:45:58;;;;;;;15.17;8.23;;;14.50;93.00;;;;;;5111309;28;20482;-65
2021/10/05 06:48:27;;;;;;;14.17;7.70;;;14.50;93.20;;;;;;5105653;28;20469;-64
2021/10/05 06:50:54;;;;;;;14.60;8.57;;;14.60;93.20;;;;;;5090752;28;20445;-65
2021/10/05 06:53:21;;;;;;;14.10;9.40;;;14.60;92.90;;;;;;5109705;28;20473;-67
2021/10/05 06:55:50;;;;;;;10.93;7.73;;;14.60;93.00;;;;;;5113978;28;20477;-64
2021/10/05 06:58:18;;;;;;;14.80;8.83;;;14.70;93.10;;;;;;5113049;28;20438;-64
2021/10/05 07:00:46;;;;;;;11.17;7.87;;;14.70;93.10;;;;;;5114442;28;20445;-65
2021/10/05 07:03:12;;;;;;;12.20;7.77;;;14.80;93.00;;;;;;5113775;28;20466;-65
2021/10/05 07:05:41;;;;;;;10.83;6.83;;;14.80;93.00;;;;;;5114330;28;20469;-64
2021/10/05 07:08:09;;;;;;;11.00;8.37;;;14.90;92.70;;;;;;5114491;28;20935;-65
2021/10/05 07:10:37;;;;;;;11.60;7.97;;;15.00;92.10;;;;;;5114422;28;20517;-64
2021/10/05 07:13:04;;;;;;;16.00;9.10;;;15.00;92.00;;;;;;5114465;28;20530;-65
2021/10/05 07:15:32;;;;;;;10.93;7.53;;;15.00;91.90;;;;;;5114461;28;20513;-65
2021/10/05 07:17:59;;;;;;;13.43;8.27;;;15.00;91.70;;;;;;5114483;28;20474;-65
2021/10/05 07:20:27;;;;;;;10.40;6.50;;;15.00;91.20;;;;;;5114331;28;20473;-65
2021/10/05 07:22:56;;;;;;;10.67;7.83;;;15.00;91.40;;;;;;5114230;28;20435;-65
2021/10/05 07:25:23;;;;;;;12.43;7.13;;;15.00;91.60;;;;;;5114251;28;20796;-65
2021/10/05 07:27:59;;;;;;;10.10;7.37;;;15.00;91.80;;;;;;5113846;28;20478;-65
2021/10/05 07:30:28;;;;;;;12.63;7.63;;;15.10;92.00;;;;;;5114260;28;20826;-65
2021/10/05 07:32:57;;;;;;;10.93;8.07;;;15.00;91.80;;;;;;5114045;28;20430;-65
2021/10/05 07:35:24;;;;;;;12.50;7.40;;;15.00;91.70;;;;;;5113868;28;20566;-65
2021/10/05 07:37:52;;;;;;;10.00;6.73;;;15.00;91.30;;;;;;5113510;28;20841;-65
2021/10/05 07:40:21;;;;;;;13.03;8.13;;;15.00;91.40;;;;;;5113999;28;20457;-65
2021/10/05 07:42:49;;;;;;;13.43;8.87;;;15.00;91.50;;;;;;5113916;28;20452;-64
2021/10/05 07:45:16;;;;;;;9.27;6.43;;;15.00;91.60;;;;;;5113366;28;20525;-65
2021/10/05 07:47:43;;;;;;;10.67;7.13;;;15.00;91.70;;;;;;5113458;28;20502;-65
2021/10/05 07:50:11;;;;;;;10.80;7.57;;;15.00;91.70;;;;;;5114005;28;20440;-65
2021/10/05 07:52:40;;;;;;;13.40;7.27;;;15.10;91.50;;;;;;5113610;28;20491;-64
2021/10/05 07:55:07;;;;;;;12.10;7.70;;;15.10;91.60;;;;;;5113158;28;20481;-66
2021/10/05 07:57:36;;;;;;;11.80;8.00;;;15.10;91.80;;;;;;5113666;28;20521;-65
2021/10/05 08:00:04;;;;;;;13.30;8.87;;;15.10;91.50;;;;;;5113698;28;20430;-65
2021/10/05 08:02:32;;;;;;;11.27;7.57;;;15.10;91.50;;;;;;5113701;28;20438;-65
2021/10/05 08:04:59;;;;;;;11.60;8.17;;;15.10;91.80;;;;;;5113248;28;20641;-66
2021/10/05 08:07:28;;;;;;;10.57;8.10;;;15.00;91.60;;;;;;5113547;28;20569;-65
2021/10/05 08:09:55;;;;;;;13.87;7.50;;;15.00;92.00;;;;;;5113630;28;20441;-65
2021/10/05 08:12:22;;;;;;;12.60;8.13;;;15.00;92.20;;;;;;5113891;28;20520;-65
2021/10/05 08:14:51;;;;;;;12.07;7.90;;;15.00;92.20;;;;;;5112637;28;20478;-64
2021/10/05 08:17:19;;;;;;;11.90;8.10;;;15.00;92.20;;;;;;5113612;28;20546;-64
2021/10/05 08:19:47;;;;;;;13.43;7.20;;;15.00;92.40;;;;;;5113677;28;20518;-64
2021/10/05 08:22:14;;;;;;;10.87;7.50;;;15.00;92.60;;;;;;5113011;28;20963;-64
2021/10/05 08:24:41;;;;;;;12.80;8.10;;;15.10;92.40;;;;;;5112995;28;20462;-64
2021/10/05 08:27:09;;;;;;;10.47;7.20;;;15.10;92.70;;;;;;5112759;28;20564;-64
2021/10/05 08:29:43;;;;;;;10.37;7.73;;;15.20;92.60;;;;;;5113076;28;20474;-64
2021/10/05 08:32:13;;;;;;;9.17;7.53;;;15.20;92.40;;;;;;5113325;28;20441;-64
2021/10/05 08:34:41;;;;;;;10.53;7.10;;;15.20;92.00;;;;;;5113231;28;20443;-64
2021/10/05 08:37:08;;;;;;;9.60;7.53;;;15.30;92.10;;;;;;5113167;28;20517;-64
2021/10/05 08:39:43;;;;;;;8.53;6.50;;;15.30;91.80;;;;;;5113231;28;20509;-65
2021/10/05 08:42:10;;;;;;;11.13;7.13;;;15.40;91.70;;;;;;5106373;28;20521;-65
2021/10/05 08:44:37;;;;;;;10.37;7.17;;;15.50;91.80;;;;;;5091325;28;20466;-64
2021/10/05 08:47:05;;;;;;;7.87;5.93;;;15.50;91.80;;;;;;5091306;28;20568;-65
2021/10/05 08:49:33;;;;;;;9.53;7.43;;;15.60;91.90;;;;;;5091600;28;20430;-65
2021/10/05 08:52:00;;;;;;;9.70;7.50;;;15.60;91.60;;;;;;5091384;28;20887;-64
2021/10/05 08:54:28;;;;;;;9.63;7.20;;;15.70;91.50;;;;;;5091404;28;20705;-64
2021/10/05 08:56:56;;;;;;;7.70;5.90;;;15.90;91.30;;;;;;5091030;28;21003;-65
2021/10/05 08:59:27;;;;;;;13.13;8.20;;;16.20;91.60;;;;;;5091422;28;20467;-64
2021/10/05 09:01:58;;;;;;;10.03;6.97;;;16.80;91.30;;;;;;5091576;28;20529;-64
2021/10/05 09:04:33;;;;;;;8.47;5.83;;;19.40;87.60;;;;;;5091065;28;20517;-65
2021/10/05 09:07:01;;;;;;;8.30;7.00;;;20.60;79.60;;;;;;5091405;28;20481;-65
2021/10/05 09:09:30;;;;;;;10.00;6.67;;;21.30;74.10;;;;;;5091691;28;20839;-65
2021/10/05 09:11:57;;;;;;;7.10;5.30;;;21.40;69.60;;;;;;5091359;28;20526;-66
2021/10/05 09:14:24;;;;;;;8.90;6.20;;;21.30;69.00;;;;;;5090897;28;20431;-65
2021/10/05 09:16:59;;;;;;;8.10;5.50;;;21.00;64.70;;;;;;5091050;28;20492;-65
2021/10/05 09:19:27;;;;;;;8.23;5.83;;;20.80;66.90;;;;;;5091661;28;20759;-67
2021/10/05 09:21:54;;;;;;;6.07;5.13;;;20.90;68.80;;;;;;5091007;28;20534;-64
2021/10/05 09:24:32;;;;;;;7.50;5.40;;;20.90;66.00;;;;;;5090875;28;20447;-65
2021/10/05 09:27:03;;;;;;;6.37;5.30;;;20.90;67.70;;;;;;5093231;28;20482;-65
2021/10/05 09:29:37;;;;;;;6.50;5.07;;;22.00;65.80;;;;;;5094616;28;20925;-65
2021/10/05 09:32:11;;;;;;;6.57;4.97;;;22.60;61.20;;;;;;5094122;28;20523;-65
2021/10/05 09:34:45;;;;;;;6.00;5.10;;;22.50;58.40;;;;;;5094359;28;20466;-64
2021/10/05 09:37:14;;;;;;;6.97;5.17;;;22.90;57.90;;;;;;5094476;28;20511;-65
2021/10/05 09:39:46;;;;;;;5.10;4.30;;;23.10;56.80;;;;;;5094268;28;20557;-65
2021/10/05 09:42:23;;;;;;;6.20;4.33;;;22.60;55.20;;;;;;5094248;28;20474;-65
2021/10/05 09:44:56;;;;;;;8.10;5.43;;;22.00;56.20;;;;;;5094573;28;21002;-65
2021/10/05 09:47:37;;;;;;;6.67;4.70;;;21.50;57.50;;;;;;5093926;28;20479;-65
2021/10/05 09:50:09;;;;;;;6.20;5.00;;;21.40;59.10;;;;;;5094272;28;20469;-65
2021/10/05 09:52:41;;;;;;;6.93;4.40;;;22.80;64.90;;;;;;5094034;28;20439;-66
2021/10/05 09:55:11;;;;;;;6.77;4.13;;;25.20;61.60;;;;;;5094210;28;20435;-66
2021/10/05 09:57:42;;;;;;;5.20;3.80;;;29.00;57.30;;;;;;5094020;28;20527;-66
2021/10/05 10:00:13;;;;;;;5.00;4.50;;;32.60;46.10;;;;;;5093875;28;20526;-64
2021/10/05 10:02:42;;;;;;;4.93;4.00;;;32.60;34.90;;;;;;5094179;28;20538;-66
2021/10/05 10:05:16;;;;;;;5.63;4.90;;;31.20;36.20;;;;;;5093703;28;20443;-65
2021/10/05 10:07:44;;;;;;;5.00;3.93;;;30.10;38.00;;;;;;5093695;28;20561;-66
2021/10/05 10:10:15;;;;;;;4.13;3.73;;;30.90;39.10;;;;;;5094106;28;20444;-66
2021/10/05 10:12:46;;;;;;;4.07;3.40;;;30.90;36.10;;;;;;5093643;28;20774;-65
2021/10/05 10:15:13;;;;;;;4.67;3.53;;;30.30;35.90;;;;;;5092452;28;20874;-66
2021/10/05 10:17:41;;;;;;;4.80;4.00;;;29.50;37.10;;;;;;5093763;28;20535;-67
2021/10/05 10:20:20;;;;;;;5.10;4.20;;;29.20;37.90;;;;;;5094165;28;20528;-65
2021/10/05 10:22:47;;;;;;;4.27;3.50;;;29.10;37.40;;;;;;5093767;28;20546;-65
2021/10/05 10:25:23;;;;;;;3.70;2.87;;;28.40;36.70;;;;;;5093873;28;20547;-65
2021/10/05 10:27:56;;;;;;;8.30;3.50;;;27.40;38.80;;;;;;5093260;28;20640;-65
2021/10/05 10:30:23;;;;;;;3.77;2.90;;;26.40;39.80;;;;;;5093788;28;20461;-65
2021/10/05 10:32:52;;;;;;;2.90;2.20;;;25.50;41.80;;;;;;5093448;28;20736;-65
2021/10/05 10:35:20;;;;;;;2.70;1.90;;;24.80;42.70;;;;;;5093541;28;20852;-65
2021/10/05 10:37:48;;;;;;;2.73;1.73;;;24.10;43.40;;;;;;5092690;28;20518;-65
2021/10/05 10:40:21;;;;;;;2.70;1.70;;;23.50;44.40;;;;;;5093163;28;20996;-65
2021/10/05 10:42:49;;;;;;;2.20;1.20;;;22.90;45.70;;;;;;5093207;28;20508;-66
2021/10/05 10:45:18;;;;;;;2.20;1.20;;;22.40;46.60;;;;;;5092847;28;20530;-65
2021/10/05 10:47:52;;;;;;;3.77;2.10;;;22.00;48.40;;;;;;5092902;28;20490;-65
2021/10/05 10:50:20;;;;;;;2.47;1.37;;;21.60;49.30;;;;;;5093426;28;20477;-64
2021/10/05 10:52:49;;;;;;;2.67;1.70;;;21.20;50.30;;;;;;5093110;28;20522;-65
2021/10/05 10:55:20;;;;;;;2.67;1.37;;;20.90;51.50;;;;;;5093274;28;20478;-64
2021/10/05 10:57:56;;;;;;;6.00;2.57;;;20.60;52.70;;;;;;5092945;28;20808;-65
2021/10/05 11:00:28;;;;;;;2.30;1.27;;;20.30;53.40;;;;;;5092949;28;20529;-64
2021/10/05 11:02:56;;;;;;;2.90;1.63;;;20.10;54.10;;;;;;5092709;28;20533;-64
2021/10/05 11:05:30;;;;;;;2.23;1.33;;;19.80;54.80;;;;;;5092559;28;20474;-64
2021/10/05 11:08:00;;;;;;;3.73;1.90;;;19.70;55.60;;;;;;5093509;28;20485;-65
2021/10/05 11:10:29;;;;;;;4.13;2.10;;;19.60;56.30;;;;;;5092704;28;20431;-65
2021/10/05 11:12:59;;;;;;;5.17;3.47;;;19.50;56.60;;;;;;5093013;28;20443;-64
2021/10/05 11:15:34;;;;;;;4.80;2.17;;;19.40;57.10;;;;;;5098307;28;20513;-65
2021/10/05 11:18:06;;;;;;;5.00;2.27;;;19.30;57.90;;;;;;5112620;28;20445;-65
2021/10/05 11:20:36;;;;;;;3.33;1.30;;;19.30;58.50;;;;;;5088137;28;20452;-66
2021/10/05 11:23:07;;;;;;;5.03;2.67;;;19.20;58.30;;;;;;5091604;28;20437;-64
2021/10/05 11:25:37;;;;;;;5.10;2.87;;;19.20;58.70;;;;;;5107178;28;20434;-65
2021/10/05 11:28:10;;;;;;;6.13;3.10;;;19.20;59.50;;;;;;5097621;28;20486;-63
2021/10/05 11:31:08;;;;;;;3.43;1.60;;;19.20;59.80;;;;;;5109939;28;20509;-71
2021/10/05 11:40:52;;;;;;;1.90;1.27;;;19.30;62.40;;;;;;5100045;28;20405;-70
2021/10/05 11:43:42;;;;;;;2.73;1.30;;;19.30;62.30;;;;;;5027965;28;20426;-70
2021/10/05 11:46:27;;;;;;;1.93;0.97;;;19.30;60.10;;;;;;5053913;28;20839;-71
2021/10/05 11:49:11;;;;;;;2.00;1.13;;;19.30;61.10;;;;;;5109570;28;20461;-74
2021/10/05 11:51:43;;;;;;;2.43;1.13;;;19.30;60.70;;;;;;5112180;28;20446;-70
2021/10/05 11:54:36;;;;;;;2.30;1.03;;;19.30;60.00;;;;;;5111992;28;20516;-70
2021/10/05 11:57:44;;;;;;;3.10;1.10;;;19.30;59.10;;;;;;5112055;28;20440;-70
2021/10/05 12:00:36;;;;;;;2.53;1.13;;;19.20;60.20;;;;;;5109842;28;20438;-71
2021/10/05 12:03:31;;;;;;;2.77;1.10;;;19.20;60.60;;;;;;5112358;28;20445;-70
2021/10/05 12:06:02;;;;;;;2.00;0.93;;;19.20;60.90;;;;;;5111951;28;20457;-71
2021/10/05 12:08:51;;;;;;;2.00;0.90;;;19.20;61.50;;;;;;5111542;28;20492;-70
2021/10/05 12:11:47;;;;;;;2.07;1.07;;;19.10;60.80;;;;;;5111772;28;20446;-70
2021/10/05 12:14:36;;;;;;;2.23;1.23;;;19.10;60.50;;;;;;5111671;28;20461;-70
2021/10/05 12:17:15;;;;;;;1.60;0.80;;;19.00;60.40;;;;;;5111482;28;20437;-70
2021/10/05 12:19:59;;;;;;;3.00;1.23;;;18.90;60.80;;;;;;5111860;28;20446;-70
2021/10/05 12:22:32;;;;;;;2.50;1.50;;;18.90;61.20;;;;;;5111873;28;20430;-70
2021/10/05 12:25:26;;;;;;;3.40;1.10;;;18.80;60.90;;;;;;5111560;28;20437;-71
2021/10/05 12:28:07;;;;;;;2.70;0.80;;;18.80;60.80;;;;;;5111754;28;20517;-71
2021/10/05 12:30:42;;;;;;;2.20;1.10;;;18.70;61.20;;;;;;5111909;28;20841;-70
2021/10/05 12:33:16;;;;;;;2.67;1.00;;;18.70;61.50;;;;;;5111794;28;20472;-69
2021/10/05 12:35:54;;;;;;;1.90;1.03;;;18.60;61.70;;;;;;5111261;28;20796;-69
2021/10/05 12:38:22;;;;;;;2.10;0.97;;;18.60;61.60;;;;;;5112006;28;20438;-69
2021/10/05 12:40:51;;;;;;;2.53;1.10;;;18.50;61.80;;;;;;5099145;28;20438;-71
2021/10/05 12:43:39;;;;;;;2.83;1.27;;;18.50;62.50;;;;;;5089685;28;20500;-70
2021/10/05 12:46:15;;;;;;;2.00;1.00;;;18.40;61.90;;;;;;5054294;28;20825;-69
2021/10/05 12:48:46;;;;;;;1.80;0.90;;;18.40;62.50;;;;;;5094207;28;20497;-69
2021/10/05 12:51:21;;;;;;;2.47;1.20;;;18.40;62.60;;;;;;5090491;28;20439;-70
2021/10/05 12:53:58;;;;;;;2.87;1.40;;;18.30;62.90;;;;;;5101404;28;20477;-70
2021/10/05 12:56:27;;;;;;;2.40;1.33;;;18.30;63.00;;;;;;5089819;28;20454;-70
2021/10/05 12:58:58;;;;;;;3.90;1.40;;;18.30;63.20;;;;;;5090780;28;20439;-70
2021/10/05 13:01:26;;;;;;;2.20;1.30;;;18.20;63.00;;;;;;5092093;28;20461;-70
2021/10/05 13:03:58;;;;;;;2.00;1.10;;;18.10;64.20;;;;;;5097546;28;20446;-68